Date,TemperatureHighF,TemperatureAvgF,TemperatureLowF,DewpointHighF,DewpointAvgF,DewpointLowF,HumidityHigh,HumidityAvg,HumidityLow,PressureMaxIn,PressureMinIn,WindSpeedMaxMPH,WindSpeedAvgMPH,GustSpeedMaxMPH,PrecipitationSumIn
2013-1-1,15.3,9.5,3.7,5.8,3.1,0.0,85,75,61,30.19,30.08,13,3,13,0.00
2013-1-2,25.5,19.3,6.2,20.2,12.8,1.4,86,76,58,30.13,30.00,14,3,14,0.00
2013-1-3,25.0,22.0,13.5,20.6,17.9,10.0,88,84,79,30.16,29.99,19,5,19,0.00
2013-1-4,28.7,20.7,11.1,19.5,14.9,6.8,87,78,67,30.14,30.01,24,7,24,0.00
2013-1-5,35.7,27.9,16.6,32.9,24.6,14.3,96,88,74,30.17,29.81,21,5,21,0.01
2013-1-6,34.1,26.9,17.7,32.0,22.9,15.2,92,85,74,30.23,29.80,20,4,20,0.00
2013-1-7,38.4,27.5,15.5,27.7,21.1,12.8,91,78,59,30.22,29.98,24,6,24,0.01
2013-1-8,39.1,33.3,25.8,30.7,28.0,23.8,92,81,70,30.06,29.87,20,4,20,0.00
2013-1-9,40.4,35.7,28.7,32.0,27.0,22.0,85,71,54,30.39,29.85,35,6,35,0.00
2013-1-10,40.3,32.5,21.9,36.0,28.3,19.3,97,85,70,30.43,29.83,25,3,25,0.40
2013-1-11,51.1,43.9,36.9,47.6,42.9,36.1,99,97,87,29.83,29.55,21,5,21,0.14
2013-1-12,52.3,38.9,25.4,47.1,32.6,20.9,91,78,66,29.90,29.54,26,7,26,0.00
2013-1-13,25.7,18.9,12.4,23.4,14.1,5.7,92,81,74,30.15,29.80,19,5,20,0.00
2013-1-14,24.8,16.1,9.1,11.8,8.0,4.7,83,71,50,30.40,30.15,15,3,15,0.00
2013-1-15,29.8,20.8,12.4,17.0,13.1,9.5,89,73,48,30.38,30.03,14,2,14,0.00
2013-1-16,32.9,26.2,16.8,28.8,19.5,9.7,86,76,58,30.03,29.69,26,6,26,0.00
2013-1-17,29.2,20.4,13.3,22.0,8.9,2.9,82,61,46,30.34,29.98,18,3,18,0.00
2013-1-18,41.0,28.9,11.1,31.6,21.6,7.1,85,74,64,30.37,29.76,37,7,37,0.06
2013-1-19,43.0,37.7,18.1,34.6,28.9,4.4,83,71,39,29.81,29.56,41,9,41,0.00
2013-1-20,18.0,10.6,6.7,5.6,-0.3,-1.8,70,61,50,30.22,29.81,31,6,31,0.00
2013-1-21,9.6,3.4,-3.4,3.1,-5.8,-12.0,80,65,54,30.24,30.06,23,6,25,0.00
2013-1-22,6.1,-0.0,-6.7,-4.3,-9.2,-15.0,73,65,56,30.33,30.23,18,5,18,0.00
2013-1-23,16.7,10.4,2.3,12.1,3.8,-5.5,87,74,65,30.34,30.04,20,4,20,0.00
2013-1-24,18.4,10.7,1.1,9.0,1.4,-5.3,75,66,51,30.61,30.33,15,2,15,0.00
2013-1-25,22.6,18.9,15.7,18.7,13.0,5.2,90,78,56,30.33,29.89,12,4,16,0.00
2013-1-26,27.4,17.7,8.0,14.0,9.0,4.2,84,69,46,30.33,30.12,13,3,13,0.00
2013-1-27,32.6,27.4,22.7,31.8,23.0,13.7,97,84,66,30.31,29.82,24,6,24,0.00
2013-1-28,43.1,36.8,32.6,39.7,34.3,31.5,99,91,71,29.88,29.71,12,2,13,0.15
2013-1-29,59.2,45.9,35.9,57.5,45.0,34.9,100,97,90,29.74,29.34,19,3,19,1.17
2013-1-30,37.7,28.2,15.7,36.8,26.4,11.4,98,93,83,29.50,29.16,25,6,25,0.17
2013-1-31,15.9,10.8,2.6,11.9,4.9,-3.0,84,77,65,30.07,29.50,23,8,23,0.00
2013-2-1,7.7,2.5,-2.7,4.8,-3.6,-7.7,88,75,66,30.27,30.07,22,6,22,0.00
2013-2-2,13.2,8.7,4.0,7.7,3.5,-1.0,90,80,64,30.13,29.97,12,2,12,0.00
2013-2-3,18.5,12.2,4.4,11.7,6.5,-0.4,88,78,64,30.00,29.90,22,4,22,0.00
2013-2-4,18.8,14.3,8.6,14.1,10.1,2.6,91,83,71,29.98,29.87,14,1,14,0.00
2013-2-5,26.5,18.5,4.2,22.6,14.1,0.1,93,83,67,30.04,29.73,17,3,17,0.00
2013-2-6,32.9,22.8,6.8,29.2,17.7,4.5,92,81,69,30.18,30.03,13,2,13,0.06
2013-2-7,32.9,31.2,22.5,31.6,29.6,21.2,98,94,86,30.06,29.82,11,2,11,0.08
2013-2-8,23.6,20.6,12.0,21.4,18.5,8.9,95,92,88,30.35,29.93,15,2,15,0.00
2013-2-9,28.5,20.4,7.9,26.2,18.2,5.8,95,91,86,30.35,30.04,15,2,15,0.00
2013-2-10,43.7,34.7,26.9,42.4,33.2,25.2,99,94,78,30.04,29.35,28,6,28,0.75
2013-2-11,41.5,31.2,26.1,35.2,26.2,20.5,87,81,75,29.90,29.35,36,10,36,0.00
2013-2-12,27.2,23.5,20.8,20.9,18.6,16.5,91,81,70,30.01,29.81,16,4,17,0.00
2013-2-13,39.6,29.6,19.2,30.1,24.9,17.5,94,83,65,29.82,29.63,16,4,16,0.00
2013-2-14,35.1,32.6,28.3,33.3,28.8,22.3,94,86,76,29.89,29.50,23,5,23,0.04
2013-2-15,28.1,20.7,13.3,24.9,11.9,5.6,91,69,51,30.12,29.89,15,3,15,0.00
2013-2-16,18.1,11.5,6.7,5.6,2.2,-0.8,81,66,49,30.14,30.07,22,3,22,0.00
2013-2-17,26.4,15.8,3.5,15.1,4.2,-1.8,80,61,42,30.17,29.94,15,2,15,0.00
2013-2-18,46.5,35.6,26.3,42.2,29.1,15.1,97,77,62,29.95,29.33,21,7,23,0.45
2013-2-19,31.0,14.4,7.7,29.7,9.5,0.3,95,81,69,30.10,29.39,31,10,31,0.00
2013-2-20,20.9,12.8,5.2,10.9,5.8,-0.5,80,73,63,30.33,30.09,19,4,19,0.00
2013-2-21,26.2,20.6,13.8,24.1,17.0,9.4,93,86,77,30.37,30.03,22,4,22,0.00
2013-2-22,29.6,27.1,23.9,28.1,25.5,21.2,96,94,85,30.03,29.72,18,4,18,0.01
2013-2-23,27.6,24.5,19.7,24.6,20.4,15.9,92,84,73,29.86,29.77,15,5,16,0.01
2013-2-24,37.8,26.7,19.0,25.3,20.6,15.8,92,79,54,30.08,29.85,12,2,12,0.03
2013-2-25,38.9,28.5,16.7,27.6,22.5,14.8,95,79,56,30.11,29.97,10,1,10,0.00
2013-2-26,33.6,31.9,30.6,30.9,28.5,25.6,98,88,74,29.98,29.51,23,6,23,0.00
2013-2-27,32.5,31.0,28.8,32.0,30.5,28.3,98,98,97,29.66,29.48,17,3,17,0.09
2013-2-28,32.4,29.6,24.2,30.6,26.7,20.3,97,89,81,30.03,29.66,18,3,18,0.11
2013-3-1,24.3,23.5,21.5,20.8,19.6,16.1,89,85,79,30.16,30.01,24,5,24,0.00
2013-3-2,26.2,20.1,11.4,17.6,14.1,8.0,87,77,66,30.16,30.11,13,3,13,0.07
2013-3-3,29.6,18.0,8.3,13.7,8.0,1.8,91,68,33,30.11,30.03,10,1,10,0.08
2013-3-4,31.7,22.8,9.0,24.2,17.1,5.4,88,79,66,30.09,29.99,14,2,14,0.06
2013-3-5,31.1,28.6,26.3,26.9,25.7,23.8,96,89,76,30.00,29.81,16,4,16,0.00
2013-3-6,32.9,29.0,25.3,28.9,25.8,23.3,93,88,82,30.23,29.96,17,4,17,0.09
2013-3-7,37.9,28.2,21.1,26.0,21.7,16.8,92,77,53,30.38,30.23,9,2,9,0.10
2013-3-8,37.9,28.4,16.6,29.4,23.7,14.8,96,83,70,30.42,30.24,16,2,16,0.01
2013-3-9,37.8,34.4,29.3,33.6,29.7,24.8,90,83,78,30.24,29.76,23,5,23,0.07
2013-3-10,43.4,38.9,35.8,43.1,38.1,33.5,99,97,89,29.76,29.54,12,2,13,0.84
2013-3-11,39.4,34.4,30.4,39.0,33.8,27.6,99,98,90,29.65,29.43,20,3,20,0.05
2013-3-12,32.4,28.3,24.6,27.6,24.0,20.6,94,84,64,29.91,29.65,18,5,18,0.01
2013-3-13,30.9,24.8,18.9,21.5,12.6,7.9,89,61,39,30.23,29.91,22,5,22,0.00
2013-3-14,34.6,27.8,19.1,27.3,17.5,9.5,92,66,40,30.24,29.99,12,2,12,0.00
2013-3-15,37.9,31.4,28.5,32.5,28.7,25.7,94,90,77,30.00,29.73,13,2,13,0.04
2013-3-16,32.9,27.5,23.9,27.8,22.8,18.0,95,83,60,30.06,29.72,16,3,16,0.02
2013-3-17,28.6,25.1,18.9,23.5,16.9,10.8,81,71,62,30.19,29.97,15,4,15,0.00
2013-3-18,32.6,28.4,18.5,31.2,25.2,12.5,95,88,74,29.97,29.50,26,6,26,0.11
2013-3-19,29.9,20.0,12.5,12.9,10.4,7.3,81,67,43,29.97,29.63,29,9,29,0.00
2013-3-20,19.9,15.2,10.4,9.4,4.1,-0.6,66,61,55,29.99,29.95,22,7,22,0.00
2013-3-21,28.4,19.1,9.6,14.6,8.7,2.8,74,64,50,29.99,29.95,17,4,17,0.00
2013-3-22,35.7,24.9,15.7,17.5,13.2,8.6,78,62,39,30.02,29.95,14,2,14,0.00
2013-3-23,38.9,28.4,18.5,24.9,20.0,14.6,87,72,46,30.08,29.98,12,1,12,0.00
2013-3-24,33.0,31.0,29.4,28.5,25.8,21.8,91,81,72,29.99,29.67,25,4,25,0.00
2013-3-25,34.2,30.6,27.6,28.4,24.9,22.0,89,79,66,30.01,29.69,19,4,19,0.00
2013-3-26,40.4,34.2,29.1,28.6,25.9,23.8,82,72,62,30.16,30.01,15,3,15,0.00
2013-3-27,41.6,36.0,32.0,25.3,22.0,18.1,73,58,41,30.23,30.16,15,3,16,0.00
2013-3-28,46.4,36.5,28.3,24.6,21.1,18.9,70,55,35,30.26,30.21,10,2,13,0.00
2013-3-29,49.9,37.8,26.3,28.7,21.9,19.1,76,54,33,30.24,30.16,12,2,12,0.00
2013-3-30,55.2,43.2,31.0,41.6,30.5,20.8,89,61,45,30.17,29.72,21,4,21,0.02
2013-3-31,50.5,41.0,31.9,41.7,34.5,19.5,94,78,52,29.79,29.59,22,6,22,0.00
2013-4-1,35.4,30.2,25.8,20.0,14.5,10.8,65,52,39,30.11,29.80,22,5,22,0.00
2013-4-2,39.1,30.9,22.5,16.2,13.7,10.2,72,50,31,30.24,30.11,21,4,21,0.00
2013-4-3,41.4,31.7,21.1,19.1,15.7,7.5,79,53,27,30.40,30.22,15,2,15,0.00
2013-4-4,56.6,42.8,29.2,34.8,24.3,12.4,61,49,36,30.23,29.87,22,6,22,0.00
2013-4-5,42.0,36.4,30.5,29.9,25.5,20.3,88,65,52,30.17,29.92,17,3,17,0.00
2013-4-6,61.9,45.9,34.1,49.4,34.8,22.3,87,66,46,30.10,29.46,28,7,30,0.11
2013-4-7,52.7,42.8,35.4,49.3,35.4,30.8,90,75,53,29.90,29.45,28,5,28,0.00
2013-4-8,50.9,41.0,35.4,45.4,38.0,30.5,98,89,81,29.92,29.50,16,3,16,0.53
2013-4-9,38.9,37.0,35.5,38.6,36.4,34.7,99,98,96,29.95,29.81,23,4,23,1.15
2013-4-10,36.8,35.2,32.9,35.8,34.4,31.9,98,97,96,29.97,29.79,22,5,22,0.91
2013-4-11,36.5,35.6,34.1,36.0,35.0,32.9,99,98,95,29.87,29.50,22,6,23,0.49
2013-4-12,40.5,36.8,34.3,38.8,35.0,29.7,99,94,82,29.72,29.44,17,4,17,0.10
2013-4-13,38.4,34.8,30.5,30.2,28.1,24.7,87,77,59,29.92,29.70,18,4,20,0.00
2013-4-14,51.8,37.2,29.6,46.2,33.9,25.8,96,88,78,29.95,29.56,23,4,23,0.06
2013-4-15,62.0,51.8,40.5,51.5,46.2,34.0,97,83,44,29.87,29.56,28,6,28,0.56
2013-4-16,54.9,42.4,34.7,38.9,34.1,31.2,95,74,45,30.22,29.85,17,3,17,0.00
2013-4-17,43.1,39.9,37.3,41.8,35.9,31.0,97,86,66,30.25,29.79,22,4,22,0.91
2013-4-18,52.1,44.3,39.2,51.9,43.5,34.7,100,97,83,29.80,29.29,34,3,34,1.40
2013-4-19,39.1,35.4,30.7,34.7,28.6,19.0,92,76,61,29.82,29.29,33,9,33,0.03
2013-4-20,43.6,33.2,25.8,24.4,19.4,13.7,78,58,30,30.36,29.81,19,4,19,0.00
2013-4-21,45.3,38.1,28.9,31.1,24.3,17.6,85,59,39,30.47,30.23,22,6,23,0.00
2013-4-22,63.8,51.0,39.1,40.2,33.4,30.0,73,52,35,30.23,29.94,19,6,19,0.00
2013-4-23,54.0,43.9,36.7,48.5,39.6,33.6,94,85,57,29.95,29.79,17,3,17,0.51
2013-4-24,51.0,41.9,33.5,33.7,27.0,21.2,85,58,32,29.97,29.85,17,3,17,0.00
2013-4-25,50.9,43.8,36.4,35.9,31.1,25.8,91,63,39,30.22,29.90,22,5,22,0.04
2013-4-26,66.0,52.9,38.4,46.0,37.8,28.3,76,58,41,30.23,30.09,27,7,27,0.00
2013-4-27,65.0,56.6,46.6,48.2,43.8,38.4,89,64,44,30.16,29.92,16,4,16,0.00
2013-4-28,67.2,56.1,47.4,50.2,44.9,39.8,89,67,50,29.92,29.72,13,2,13,0.00
2013-4-29,70.4,60.6,50.2,55.9,51.8,48.5,94,74,51,29.77,29.65,18,4,18,0.01
2013-4-30,85.0,72.0,61.1,60.8,56.3,50.9,85,61,32,29.79,29.62,25,8,25,0.00
2013-5-1,82.0,69.9,47.5,58.9,52.9,39.2,80,57,29,30.10,29.79,21,6,21,0.00
2013-5-2,56.7,45.8,38.6,45.3,39.4,34.3,96,79,59,30.16,30.08,16,3,16,1.05
2013-5-3,46.1,41.2,36.9,44.6,39.6,35.6,97,94,87,30.11,29.94,15,3,15,0.27
2013-5-4,67.7,54.0,43.3,49.0,44.4,40.8,93,72,46,29.98,29.92,14,2,14,0.02
2013-5-5,68.0,56.1,42.7,45.1,41.3,36.1,89,60,40,29.98,29.92,10,1,10,0.00
2013-5-6,72.5,59.5,46.8,42.8,37.7,28.5,70,47,20,29.98,29.90,9,1,9,0.00
2013-5-7,73.4,61.7,46.6,46.2,40.5,34.8,72,48,30,29.97,29.90,10,1,10,0.00
2013-5-8,79.5,63.2,45.1,48.3,42.6,37.3,86,52,24,29.94,29.86,13,1,13,0.00
2013-5-9,69.3,56.8,40.7,57.2,47.3,39.5,96,72,50,29.87,29.79,15,2,15,0.20
2013-5-10,46.2,42.3,40.2,42.7,40.6,39.2,97,94,86,29.90,29.73,20,3,20,0.73
2013-5-11,51.9,45.7,40.0,48.9,36.4,24.4,98,73,39,29.93,29.69,31,5,31,0.00
2013-5-12,52.2,43.2,35.6,32.4,27.2,22.7,79,55,33,30.04,29.92,19,4,19,0.00
2013-5-13,57.9,45.1,31.5,36.7,31.4,24.6,96,62,28,30.10,29.88,14,2,14,0.00
2013-5-14,83.5,65.4,47.0,58.4,47.7,31.6,67,54,29,29.89,29.45,37,5,37,0.05
2013-5-15,78.2,71.9,57.9,60.0,47.7,39.5,62,44,27,29.73,29.45,18,3,19,0.00
2013-5-16,79.0,64.3,54.6,50.9,42.0,29.4,72,45,31,29.89,29.72,10,1,10,0.00
2013-5-17,59.6,53.7,46.3,48.8,43.2,33.9,95,69,44,30.03,29.88,13,1,13,0.57
2013-5-18,76.3,61.9,49.6,60.6,52.0,44.0,86,71,49,30.00,29.86,13,1,13,0.00
2013-5-19,81.2,69.6,57.3,65.4,60.4,53.2,88,74,56,29.86,29.62,24,4,24,0.00
2013-5-20,84.5,75.7,67.4,66.7,60.8,55.7,89,62,39,29.65,29.55,27,5,27,0.05
2013-5-21,79.2,69.7,62.1,64.0,60.2,55.9,94,74,48,29.59,29.50,24,5,24,0.10
2013-5-22,65.7,58.7,51.0,64.2,56.6,50.5,98,93,81,29.67,29.51,9,0,9,1.10
2013-5-23,52.7,47.3,39.5,51.8,43.0,33.6,99,85,63,30.24,29.67,20,2,20,0.05
2013-5-24,58.7,46.0,35.3,39.8,34.3,29.8,90,65,42,30.38,30.24,11,1,11,0.00
2013-5-25,59.1,49.5,39.7,40.1,34.7,27.1,84,59,33,30.33,30.23,12,0,12,0.00
2013-5-26,63.7,51.8,37.4,43.9,39.5,34.0,91,65,40,30.23,30.10,17,1,17,0.00
2013-5-27,54.0,50.5,48.9,50.2,46.9,39.8,98,88,63,30.10,29.82,16,2,16,0.04
2013-5-28,72.2,59.9,49.3,67.1,58.6,48.8,100,96,81,29.83,29.60,14,1,14,1.66
2013-5-29,80.5,69.4,58.8,67.9,63.7,58.2,100,84,57,29.81,29.67,16,2,16,0.00
2013-5-30,84.5,74.7,64.2,69.6,66.1,61.4,93,75,56,29.79,29.64,29,6,29,0.33
2013-5-31,77.3,69.0,62.2,67.3,63.0,60.2,97,82,61,29.74,29.59,26,5,26,0.13
2013-6-1,76.2,69.7,64.0,66.6,63.3,57.4,95,81,62,29.60,29.50,22,4,22,0.03
2013-6-2,63.8,54.2,45.0,57.5,47.3,41.9,91,78,60,29.94,29.55,21,2,21,0.00
2013-6-3,69.4,56.3,44.0,49.2,43.2,37.8,97,65,39,30.01,29.93,13,2,14,0.00
2013-6-4,69.6,58.7,50.9,47.9,42.7,37.2,78,56,41,30.08,30.00,12,1,12,0.00
2013-6-5,62.0,55.1,50.5,53.6,47.6,44.2,92,77,55,30.06,29.89,13,1,13,0.08
2013-6-6,57.6,54.2,51.2,53.0,49.2,45.3,93,83,70,29.90,29.83,8,0,8,0.00
2013-6-7,70.8,60.2,49.8,50.9,44.2,37.4,84,59,32,29.90,29.82,10,1,10,0.00
2013-6-8,72.2,59.0,46.9,53.2,47.2,42.0,88,67,40,29.94,29.82,7,0,7,0.00
2013-6-9,76.1,65.0,52.3,61.7,55.7,48.2,87,73,56,29.94,29.73,18,1,18,0.00
2013-6-10,77.1,66.6,58.4,66.4,61.4,57.3,97,84,63,29.76,29.67,8,0,8,0.00
2013-6-11,83.4,72.2,60.6,67.3,62.3,58.9,96,73,49,29.81,29.69,12,2,12,0.01
2013-6-12,75.1,67.5,60.3,65.6,62.5,58.9,98,85,68,29.81,29.53,26,1,26,1.18
2013-6-13,74.9,64.1,54.5,59.6,54.9,49.6,98,73,54,29.98,29.60,13,1,13,0.00
2013-6-14,75.0,62.7,51.5,55.9,50.3,46.4,92,66,44,30.05,29.93,9,0,9,0.00
2013-6-15,75.7,65.0,54.8,68.1,60.1,47.7,96,84,74,29.98,29.72,25,3,25,1.19
2013-6-16,83.8,74.1,65.5,66.7,59.5,51.2,97,65,34,29.79,29.72,16,3,16,0.04
2013-6-17,85.8,69.0,57.1,63.8,55.9,50.8,88,66,36,29.87,29.73,18,2,18,0.05
2013-6-18,68.7,60.1,51.5,55.8,49.0,39.1,91,68,47,30.00,29.85,13,1,13,0.00
2013-6-19,72.5,61.4,46.7,49.4,45.2,40.2,85,57,40,30.07,30.00,14,2,14,0.00
2013-6-20,82.8,70.3,56.6,62.3,52.2,37.7,64,53,40,30.06,29.97,18,3,18,0.00
2013-6-21,75.2,70.3,65.5,67.4,63.9,54.5,97,81,61,30.01,29.76,31,3,31,0.85
2013-6-22,76.9,70.4,65.7,70.9,66.9,64.2,97,89,78,30.01,29.83,19,3,19,0.59
2013-6-23,86.8,75.9,66.0,73.4,68.0,64.0,95,77,59,29.91,29.76,19,4,19,0.00
2013-6-24,79.2,73.3,68.5,70.0,67.1,64.1,94,81,63,29.91,29.73,19,3,22,0.00
2013-6-25,81.7,70.9,65.1,72.5,67.5,64.1,98,90,71,29.83,29.70,16,2,16,1.42
2013-6-26,78.6,71.0,66.1,70.2,67.0,64.6,96,88,72,29.71,29.60,9,1,13,0.12
2013-6-27,86.3,73.1,63.5,72.8,67.0,61.9,99,83,52,29.66,29.56,17,2,17,0.07
2013-6-28,77.3,69.6,63.2,66.9,62.0,59.2,94,78,56,29.60,29.48,20,3,20,0.03
2013-6-29,72.5,65.4,61.2,62.0,58.7,54.7,95,80,56,29.72,29.50,20,2,20,0.00
2013-6-30,78.0,67.5,58.0,60.5,50.6,40.7,80,56,32,29.93,29.72,13,2,14,0.01
2013-7-1,79.3,68.0,56.1,53.5,49.1,45.4,80,53,33,30.01,29.92,15,1,15,0.00
2013-7-2,72.5,62.5,55.5,55.2,51.0,44.2,90,67,41,30.02,29.98,13,0,13,0.00
2013-7-3,66.6,62.4,59.6,62.4,58.6,55.1,96,88,81,29.99,29.93,7,0,7,0.04
2013-7-4,79.0,69.7,60.1,64.6,61.1,55.9,99,76,49,30.01,29.92,16,2,16,0.00
2013-7-5,82.8,74.0,64.6,65.2,62.0,56.9,87,68,46,29.97,29.89,16,3,18,0.00
2013-7-6,83.0,74.5,64.9,67.8,64.2,57.9,89,72,46,29.94,29.85,12,2,15,0.00
2013-7-7,87.3,77.7,69.0,71.4,68.9,65.9,93,75,54,29.88,29.80,11,2,11,0.00
2013-7-8,86.5,76.9,70.3,74.6,70.8,67.9,95,82,65,29.87,29.79,16,2,16,0.13
2013-7-9,83.0,73.9,67.4,74.8,70.3,66.2,97,89,75,29.88,29.70,15,2,15,0.08
2013-7-10,78.0,73.9,62.2,74.6,63.4,55.5,95,72,48,29.90,29.71,21,3,21,0.00
2013-7-11,81.8,68.8,55.8,60.7,54.7,48.3,95,64,37,30.01,29.90,8,0,8,0.00
2013-7-12,81.6,68.4,52.2,60.6,54.9,50.0,93,65,37,30.06,29.99,13,1,13,0.00
2013-7-13,80.7,71.4,57.6,62.9,58.6,54.5,96,66,42,30.07,30.00,14,2,14,0.00
2013-7-14,85.3,75.5,62.9,69.7,65.5,60.6,94,73,51,30.12,30.06,12,2,12,0.00
2013-7-15,88.6,78.9,68.3,74.9,71.0,65.8,95,78,61,30.16,30.11,12,1,12,0.00
2013-7-16,91.2,82.7,73.6,75.7,73.7,71.2,94,76,58,30.17,30.10,12,2,12,0.00
2013-7-17,92.8,84.3,76.0,75.5,73.5,71.0,90,71,52,30.17,30.03,16,2,16,0.00
2013-7-18,93.0,84.6,75.8,74.9,72.4,70.3,89,68,49,30.04,29.78,17,4,17,0.00
2013-7-19,90.2,83.4,75.3,73.5,71.5,64.3,82,68,54,29.78,29.60,24,5,24,0.00
2013-7-20,84.5,72.7,64.8,65.7,61.6,56.4,84,69,44,29.85,29.67,11,1,11,0.02
2013-7-21,79.9,68.7,63.3,67.2,61.0,53.8,97,78,60,29.88,29.78,12,1,12,0.46
2013-7-22,85.0,74.4,62.6,70.8,66.8,61.7,99,79,53,29.78,29.57,16,2,16,0.01
2013-7-23,74.5,68.1,58.3,63.9,58.0,52.3,90,71,51,29.90,29.58,14,2,16,0.03
2013-7-24,73.1,62.6,52.0,55.7,52.3,49.8,94,71,49,29.99,29.89,8,0,8,0.01
2013-7-25,77.5,66.5,51.3,61.9,56.1,49.0,93,71,51,30.00,29.87,14,3,14,0.00
2013-7-26,69.6,66.1,60.3,66.0,62.0,57.4,96,87,73,29.88,29.75,17,3,17,0.29
2013-7-27,60.6,56.6,52.9,57.5,49.8,45.3,94,79,62,29.82,29.76,15,3,15,0.00
2013-7-28,66.0,58.3,51.4,53.1,50.5,48.5,92,76,59,29.90,29.74,12,3,15,0.00
2013-7-29,73.3,62.5,56.1,58.4,54.4,51.2,91,75,54,30.10,29.90,14,1,14,0.00
2013-7-30,74.0,64.6,56.0,63.5,59.6,54.0,97,85,64,30.10,30.00,13,2,13,0.10
2013-7-31,75.8,65.4,61.3,67.0,63.3,59.1,99,93,73,30.00,29.84,13,0,13,0.35
2013-8-1,77.3,68.3,60.1,61.7,57.2,51.6,97,70,43,29.88,29.81,14,2,18,0.01
2013-8-2,79.5,69.8,61.5,67.1,59.8,54.3,97,73,47,29.84,29.74,13,2,16,0.33
2013-8-3,77.5,67.6,55.7,57.9,54.3,50.5,89,65,43,30.02,29.83,15,1,15,0.00
2013-8-4,73.3,64.1,56.8,60.1,56.1,53.6,97,76,55,30.12,30.01,11,0,12,0.00
2013-8-5,72.0,64.3,56.3,62.3,58.3,53.4,92,81,66,30.04,29.77,14,2,14,0.02
2013-8-6,81.6,72.3,63.1,70.2,66.3,61.6,97,82,63,29.78,29.68,14,3,14,0.01
2013-8-7,83.5,74.1,63.9,71.7,66.4,60.3,96,78,49,29.86,29.65,13,2,13,0.00
2013-8-8,77.3,67.8,59.9,61.8,53.2,44.1,97,64,33,29.95,29.85,9,0,9,0.00
2013-8-9,78.6,68.9,55.7,65.0,57.4,46.1,87,67,56,29.95,29.87,12,2,12,0.00
2013-8-10,76.8,66.4,55.3,61.2,57.0,53.3,95,73,49,30.04,29.94,8,0,9,0.00
2013-8-11,71.2,64.1,54.4,64.0,59.6,52.8,96,86,72,30.04,29.93,10,1,11,0.02
2013-8-12,80.2,69.8,63.5,68.8,64.3,57.6,99,84,51,29.94,29.77,12,1,12,0.75
2013-8-13,69.8,60.5,51.9,58.2,49.5,45.9,92,69,46,30.08,29.87,15,2,15,0.00
2013-8-14,71.8,60.3,48.1,53.0,49.7,45.1,93,70,43,30.13,30.05,10,1,10,0.00
2013-8-15,78.6,66.1,55.9,57.0,51.9,47.0,87,63,36,30.06,29.99,9,2,12,0.00
2013-8-16,80.7,68.2,56.2,58.7,54.9,50.6,91,66,39,30.10,30.02,12,0,12,0.00
2013-8-17,77.9,66.6,53.5,63.5,56.6,52.4,98,73,47,30.16,30.08,13,1,13,0.00
2013-8-18,79.3,67.4,53.5,64.2,56.8,51.8,95,71,49,30.12,30.01,8,1,12,0.01
2013-8-19,81.4,71.5,59.8,64.5,60.6,55.3,86,70,50,30.01,29.92,13,2,13,0.00
2013-8-20,84.8,74.8,64.6,67.3,64.5,62.0,92,72,49,29.99,29.90,14,2,14,0.00
2013-8-21,87.5,77.9,68.2,70.5,67.4,64.0,88,71,55,29.93,29.79,19,4,19,0.00
2013-8-22,74.8,69.3,60.0,69.4,65.4,55.7,96,88,75,30.03,29.88,20,1,20,1.00
2013-8-23,79.2,67.8,56.5,64.5,58.7,54.7,98,75,46,30.09,30.02,11,0,11,0.01
2013-8-24,81.7,69.1,55.4,66.5,60.3,54.0,98,75,53,30.17,30.07,14,3,14,0.01
2013-8-25,88.8,77.2,66.9,70.9,64.7,56.9,85,67,44,30.11,29.98,21,4,21,0.00
2013-8-26,89.0,79.4,72.2,75.6,69.7,64.6,83,72,62,30.00,29.83,18,4,18,0.00
2013-8-27,93.1,83.6,74.5,75.4,72.6,70.0,87,70,52,29.84,29.67,19,3,19,0.00
2013-8-28,84.3,76.0,68.2,73.9,69.3,65.8,94,81,60,29.93,29.69,8,0,8,0.00
2013-8-29,86.0,75.4,64.0,71.1,67.5,62.9,98,78,55,29.97,29.86,12,1,12,0.00
2013-8-30,92.8,75.0,67.2,76.3,68.5,62.2,93,81,55,29.87,29.65,21,3,21,0.16
2013-8-31,78.0,69.2,62.7,67.9,64.4,60.5,96,85,69,29.76,29.69,8,0,8,0.00
2013-9-1,82.8,69.3,59.4,70.9,65.0,58.5,99,87,65,29.72,29.60,16,2,16,0.07
2013-9-2,71.1,64.0,56.8,61.5,57.7,51.9,96,81,58,29.90,29.70,12,1,12,0.01
2013-9-3,73.7,62.0,49.5,55.8,52.6,47.8,96,73,48,30.00,29.90,10,1,10,0.00
2013-9-4,81.1,67.2,55.6,65.0,58.8,52.6,92,76,50,30.03,29.93,12,2,12,0.00
2013-9-5,70.5,64.4,53.1,62.5,52.0,45.8,91,66,43,30.19,30.03,10,1,10,0.00
2013-9-6,83.5,67.8,50.2,67.9,58.6,47.8,96,74,54,30.14,29.88,14,2,14,0.00
2013-9-7,80.5,71.8,67.0,69.9,66.5,62.7,95,84,61,29.89,29.78,14,2,14,0.86
2013-9-8,72.2,67.5,64.5,66.3,63.8,61.6,93,88,76,29.96,29.86,8,1,10,0.00
2013-9-9,87.1,76.6,66.9,77.0,70.7,63.7,94,83,70,29.89,29.68,14,4,14,0.00
2013-9-10,93.1,84.0,76.5,72.2,65.8,62.5,71,56,38,29.82,29.69,20,5,20,0.00
2013-9-11,81.3,74.5,67.9,68.3,66.4,64.3,91,76,60,29.95,29.80,9,2,12,0.00
2013-9-12,75.2,64.8,55.6,64.7,59.1,48.5,98,83,56,30.03,29.84,11,1,11,0.20
2013-9-13,64.8,54.6,46.4,49.0,44.5,39.7,90,70,42,30.12,30.02,16,1,16,0.00
2013-9-14,69.2,56.7,43.1,50.1,45.8,41.7,97,70,43,30.09,29.93,11,2,11,0.00
2013-9-15,59.1,55.7,52.8,56.9,51.9,45.6,98,88,61,30.14,29.90,16,1,16,0.45
2013-9-16,62.5,52.3,42.7,50.2,45.1,40.2,94,78,54,30.31,30.14,13,1,13,0.00
2013-9-17,65.0,55.3,42.2,54.7,49.8,40.9,98,83,65,30.27,30.03,15,2,15,0.01
2013-9-18,77.6,67.1,57.6,66.8,60.9,53.3,92,81,68,30.03,29.81,16,3,16,0.07
2013-9-19,80.1,71.2,66.7,72.2,67.8,64.1,96,89,76,29.82,29.64,24,5,24,0.68
2013-9-20,72.5,65.8,57.1,66.6,61.1,53.2,97,85,68,29.70,29.60,19,4,19,0.01
2013-9-21,57.5,54.1,45.9,54.0,47.9,43.8,94,80,64,29.86,29.70,11,2,15,0.00
2013-9-22,62.7,51.1,42.2,48.0,43.5,39.6,95,77,47,30.00,29.86,8,0,8,0.00
2013-9-23,62.6,51.7,41.4,51.2,46.5,40.3,98,84,63,30.06,29.97,14,1,14,0.01
2013-9-24,67.9,57.1,48.1,56.5,50.9,46.7,97,82,56,29.99,29.88,12,1,12,0.01
2013-9-25,68.7,56.4,46.3,58.8,50.5,45.4,99,82,57,29.92,29.87,10,0,10,0.01
2013-9-26,72.3,58.7,47.7,60.0,51.4,46.5,99,80,40,30.01,29.90,10,1,12,0.01
2013-9-27,76.8,62.6,49.0,56.0,52.7,47.9,99,73,45,30.08,29.98,18,2,18,0.01
2013-9-28,80.2,67.4,54.5,65.5,58.2,52.8,95,74,48,29.99,29.75,25,5,25,0.11
2013-9-29,69.6,57.5,48.8,53.2,48.4,40.6,98,76,38,29.96,29.84,11,1,11,0.02
2013-9-30,70.8,57.8,43.7,53.9,48.5,42.4,96,74,47,29.92,29.75,17,3,17,0.00
2013-10-1,80.5,67.3,56.5,63.7,59.0,50.3,96,76,53,29.85,29.73,21,4,22,0.00
2013-10-2,76.2,62.4,48.7,58.7,47.5,33.8,94,65,24,30.01,29.84,9,0,9,0.00
2013-10-3,74.2,66.0,58.6,67.7,62.7,53.8,99,89,73,29.91,29.74,18,2,18,0.13
2013-10-4,65.1,62.6,59.6,63.9,61.9,59.3,99,98,95,29.92,29.78,10,0,10,0.29
2013-10-5,71.7,64.6,59.9,70.4,64.1,59.6,100,98,92,29.88,29.62,24,1,24,0.44
2013-10-6,64.5,53.6,45.1,63.9,46.5,40.5,98,79,53,29.65,29.57,17,3,17,0.06
2013-10-7,64.9,52.1,44.9,47.6,45.0,42.8,97,79,46,30.00,29.61,20,3,20,0.02
2013-10-8,75.0,58.0,42.0,54.2,47.5,40.9,98,72,37,30.09,30.00,13,2,13,0.00
2013-10-9,70.2,58.9,49.7,51.0,48.0,42.0,91,69,38,30.14,30.05,14,2,14,0.00
2013-10-10,71.7,58.1,46.7,56.6,50.8,45.7,99,79,46,30.09,29.97,13,1,13,0.00
2013-10-11,72.5,61.7,53.8,58.5,54.1,51.3,96,77,54,29.98,29.87,23,3,23,0.01
2013-10-12,66.4,60.5,51.8,62.2,52.6,38.8,95,76,53,30.06,29.83,15,4,15,0.32
2013-10-13,60.4,49.6,40.2,44.1,40.2,38.0,93,72,44,30.33,30.06,16,2,16,0.00
2013-10-14,59.2,48.0,36.8,47.6,41.7,35.4,97,80,57,30.35,30.07,13,1,13,0.01
2013-10-15,59.5,53.9,47.1,58.7,50.7,42.8,98,89,79,30.08,29.65,16,3,16,0.17
2013-10-16,52.7,49.1,46.2,50.4,46.7,42.5,96,92,85,29.83,29.69,16,3,16,0.02
2013-10-17,50.4,46.0,42.3,46.6,43.6,39.3,96,91,78,29.83,29.72,12,1,12,0.09
2013-10-18,48.6,43.8,39.5,43.8,39.6,37.0,94,85,76,29.85,29.72,16,3,16,0.01
2013-10-19,51.2,43.8,38.8,39.6,36.5,33.0,91,77,51,29.83,29.66,19,3,19,0.01
2013-10-20,50.2,43.1,32.4,46.9,38.9,31.4,98,86,57,29.79,29.64,16,2,16,0.05
2013-10-21,48.2,40.2,31.9,44.2,32.2,23.5,89,73,61,29.85,29.65,20,4,20,0.00
2013-10-22,45.0,35.5,27.8,31.2,27.3,23.4,87,72,54,29.89,29.83,8,2,11,0.00
2013-10-23,43.1,35.4,28.6,29.1,25.8,21.5,90,70,44,29.93,29.85,17,2,18,0.00
2013-10-24,41.7,36.3,32.1,28.3,27.0,25.1,80,69,56,30.21,29.92,17,3,17,0.00
2013-10-25,49.6,39.7,28.3,30.2,27.0,24.3,87,62,42,30.30,29.84,32,4,32,0.00
2013-10-26,50.4,46.1,41.0,36.5,30.3,25.8,66,54,41,29.97,29.70,33,6,33,0.00
2013-10-27,53.0,43.0,33.2,32.4,30.0,27.3,80,61,41,29.96,29.83,20,3,20,0.00
2013-10-28,43.7,41.0,34.5,37.5,33.4,29.1,84,74,65,30.34,29.96,16,1,16,0.00
2013-10-29,52.6,42.3,34.0,43.8,38.2,29.2,96,86,69,30.32,30.07,8,1,12,0.00
2013-10-30,57.8,49.7,39.7,55.9,48.2,38.6,98,94,90,30.07,29.66,23,2,23,0.01
2013-10-31,61.6,56.8,44.0,60.9,56.0,41.3,99,97,92,29.66,29.10,22,4,22,0.43
2013-11-1,45.2,43.2,41.4,43.0,40.7,38.1,95,91,88,29.64,29.19,26,4,26,0.05
2013-11-2,45.4,42.2,38.7,41.5,38.7,35.5,96,88,70,30.07,29.63,12,2,12,0.03
2013-11-3,49.6,41.2,30.1,41.8,36.0,29.0,99,83,56,30.23,30.06,23,3,23,0.00
2013-11-4,53.6,48.6,43.6,44.9,40.9,38.1,86,75,59,30.18,29.99,23,7,23,0.00
2013-11-5,55.1,51.1,48.4,50.0,47.3,44.7,94,87,77,30.16,29.81,19,4,19,0.01
2013-11-6,55.3,44.5,31.7,54.2,41.1,25.2,97,88,66,30.06,29.64,22,6,22,0.31
2013-11-7,40.4,34.2,28.0,32.1,28.4,24.9,89,79,65,30.15,30.06,14,3,14,0.00
2013-11-8,46.2,36.8,25.6,34.5,29.9,24.1,96,77,61,30.24,29.80,23,4,23,0.01
2013-11-9,53.1,46.9,40.4,40.5,36.1,25.6,79,66,54,29.96,29.68,34,9,34,0.00
2013-11-10,47.4,41.9,37.1,32.0,29.4,26.5,70,61,47,30.22,29.96,21,5,21,0.00
2013-11-11,43.4,33.4,23.3,34.6,25.9,14.5,95,74,64,30.45,29.97,18,3,18,0.11
2013-11-12,30.5,24.0,19.3,17.6,14.9,11.8,83,68,49,30.64,30.45,17,4,17,0.01
2013-11-13,40.3,29.9,18.5,20.8,16.4,12.7,82,59,35,30.50,30.01,25,8,29,0.00
2013-11-14,45.8,39.0,32.0,29.9,25.3,18.4,68,58,50,30.01,29.82,18,6,22,0.00
2013-11-15,53.3,43.7,37.7,35.0,31.3,27.8,87,62,47,29.86,29.80,14,4,14,0.00
2013-11-16,58.4,48.1,37.7,55.8,46.2,34.0,98,93,85,29.83,29.43,26,7,26,0.29
2013-11-17,62.9,52.7,39.7,61.0,50.1,34.6,98,91,78,29.53,28.95,35,8,35,1.03
2013-11-18,39.7,33.7,26.7,34.8,26.0,21.1,83,73,63,30.18,29.53,31,8,31,0.00
2013-11-19,38.6,30.2,21.0,31.8,24.8,18.7,92,81,61,30.32,30.17,11,2,11,0.00
2013-11-20,41.6,36.7,32.0,35.1,30.6,26.7,95,79,56,30.21,30.05,20,6,20,0.08
2013-11-21,45.2,41.2,36.5,40.4,38.5,35.2,96,90,82,30.14,30.04,11,1,11,0.00
2013-11-22,39.2,32.0,25.3,37.1,26.6,16.8,95,81,63,30.39,30.13,16,3,16,0.04
2013-11-23,25.2,18.4,11.9,16.8,7.7,2.5,73,63,50,30.65,30.32,25,5,25,0.00
2013-11-24,24.8,17.1,7.6,9.2,5.2,1.9,84,61,40,30.64,30.23,26,4,26,0.00
2013-11-25,29.3,25.6,20.7,25.6,19.5,6.6,92,78,51,30.24,29.97,20,7,27,0.00
2013-11-26,31.2,25.8,13.7,26.4,18.5,5.2,88,74,51,30.11,29.95,22,4,22,0.00
2013-11-27,25.7,17.9,9.6,15.1,9.7,4.3,83,70,55,30.19,30.10,18,3,18,0.00
2013-11-28,27.7,22.5,14.8,17.5,14.7,11.3,87,72,62,30.45,30.13,14,2,14,0.00
2013-11-29,30.2,22.9,10.8,24.3,16.4,8.4,92,77,54,30.59,30.31,12,2,12,0.00
2013-11-30,45.4,35.5,26.9,32.3,27.8,21.6,84,74,58,30.32,29.96,16,3,16,0.00
2013-12-1,40.9,33.3,26.5,30.5,28.0,24.7,95,81,61,30.05,29.91,8,1,8,0.00
2013-12-2,39.1,32.6,24.0,35.2,29.0,22.8,97,87,71,29.91,29.71,17,2,17,0.04
2013-12-3,39.7,37.7,33.0,39.4,37.2,31.7,99,98,95,29.71,29.61,14,2,14,0.16
2013-12-4,51.2,43.4,36.2,50.5,43.0,33.3,100,98,87,29.68,29.38,27,4,32,0.03
2013-12-5,36.1,24.5,16.0,33.5,17.8,8.6,93,75,63,30.18,29.50,25,7,25,0.00
2013-12-6,16.2,11.8,7.6,9.3,4.8,1.0,81,73,64,30.49,30.16,17,5,17,0.00
2013-12-7,15.3,7.8,1.8,3.6,0.7,-3.1,83,73,56,30.65,30.49,20,2,20,0.00
2013-12-8,25.2,17.4,5.0,24.2,13.8,-0.3,96,86,63,30.58,29.88,14,2,14,0.00
2013-12-9,24.7,12.6,-3.0,23.7,7.8,-7.8,96,81,65,30.12,29.84,27,6,27,0.00
2013-12-10,18.9,7.7,-5.2,10.7,2.0,-9.0,87,77,68,30.23,29.90,27,6,27,0.00
2013-12-11,13.2,6.8,-3.2,10.2,-0.2,-9.5,90,73,57,30.48,30.21,21,3,21,0.00
2013-12-12,16.4,8.2,-3.6,10.5,1.3,-9.1,79,73,65,30.47,30.14,20,5,20,0.00
2013-12-13,26.8,20.4,13.2,23.5,16.4,9.0,91,84,77,30.16,30.10,16,2,16,0.00
2013-12-14,26.9,24.1,18.6,24.2,22.0,16.7,94,92,86,30.11,29.85,13,2,13,0.00
2013-12-15,19.8,11.4,2.3,17.6,4.2,-6.1,92,73,60,30.07,29.83,18,5,19,0.00
2013-12-16,18.0,8.6,-2.7,11.8,2.9,-7.9,90,78,55,30.12,29.95,14,2,14,0.00
2013-12-17,32.7,23.7,13.2,25.0,18.8,10.9,93,82,69,29.98,29.84,20,5,20,0.06
2013-12-18,34.5,24.1,11.2,27.5,15.8,7.1,83,71,43,30.05,29.70,20,5,20,0.00
2013-12-19,34.1,30.3,25.6,30.7,27.1,23.0,96,88,76,29.90,29.71,14,2,14,0.00
2013-12-20,31.4,28.6,26.1,30.4,27.6,25.0,97,96,95,29.78,29.70,9,2,11,0.00
2013-12-21,32.0,28.2,24.8,31.5,27.5,24.1,98,97,91,29.81,29.60,12,1,12,0.00
2013-12-22,30.8,25.6,19.5,28.7,24.3,17.7,98,95,91,30.03,29.58,9,2,12,0.00
2013-12-23,19.5,11.5,0.3,18.1,9.2,-2.9,95,90,85,30.33,30.03,15,3,15,0.00
2013-12-24,18.3,6.3,-3.2,12.6,2.9,-5.9,90,86,76,30.49,30.29,9,3,12,0.01
2013-12-25,22.1,19.1,11.4,20.3,16.9,9.0,93,91,87,30.29,30.00,14,4,14,0.00
2013-12-26,26.0,20.3,11.4,24.0,17.2,8.8,93,88,78,30.19,30.00,16,2,16,0.00
2013-12-27,37.5,28.2,14.6,31.1,24.8,12.9,96,87,76,30.20,29.93,22,4,22,0.09
2013-12-28,42.8,36.8,27.8,33.8,30.8,25.2,91,79,67,29.97,29.66,18,5,18,0.37
2013-12-29,41.3,21.9,1.4,30.8,16.2,-4.6,94,79,65,30.13,29.64,18,5,18,0.01
2013-12-30,4.1,-0.9,-8.1,-2.2,-7.8,-12.9,84,73,52,30.28,30.13,13,3,13,0.00
2013-12-31,7.7,4.4,0.6,3.2,-0.2,-3.4,87,81,74,30.33,30.15,9,3,11,0.00
2014-1-1,14.4,8.7,2.0,11.8,4.9,-5.8,90,84,69,30.32,30.21,11,3,11,0.00
2014-1-2,15.1,8.6,-1.1,8.8,3.8,-6.6,90,80,68,30.37,30.17,13,3,13,0.00